Time;durP1;ratioP1;P1;durP2;ratioP2;P2;SDS_P1;SDS_P2;PMS_P1;PMS_P2;Temp;Humidity;BMP_temperature;BMP_pressure;BME280_temperature;BME280_humidity;BME280_pressure;Samples;Min_cycle;Max_cycle;Signal;HPM_P1;HPM_P2
2022/11/23 00:02:15;;;;;;;4.27;1.30;;;10.00;1.00;;;;;;5015253;28;20437;-82
2022/11/23 00:04:43;;;;;;;5.53;1.43;;;10.00;1.00;;;;;;5029029;28;21010;-83
2022/11/23 00:07:46;;;;;;;7.97;1.90;;;10.00;1.00;;;;;;5034789;28;20440;-83
2022/11/23 00:10:49;;;;;;;;;;;;;;;;;;;;;
2022/11/23 00:13:40;;;;;;;;;;;;;;;;;;;;;
2022/11/23 00:16:24;;;;;;;10.10;1.70;;;10.00;1.00;;;;;;5039483;28;20435;-83
2022/11/23 00:18:59;;;;;;;12.40;1.87;;;10.00;1.00;;;;;;5041922;28;20513;-82
2022/11/23 00:21:49;;;;;;;5.00;1.70;;;10.00;1.00;;;;;;5036579;28;20424;-85
2022/11/23 00:24:18;;;;;;;6.33;1.70;;;10.00;1.00;;;;;;5043442;28;20463;-83
2022/11/23 00:27:34;;;;;;;;;;;;;;;;;;;;;
2022/11/23 00:33:14;;;;;;;5.10;1.97;;;10.00;1.00;;;;;;5025468;28;20546;-84
2022/11/23 00:36:12;;;;;;;5.83;1.77;;;10.00;1.00;;;;;;5043493;28;20470;-84
2022/11/23 00:39:04;;;;;;;3.40;1.77;;;10.00;1.00;;;;;;5030750;28;20448;-84
2022/11/23 00:41:40;;;;;;;6.60;1.80;;;10.00;1.00;;;;;;5051833;28;20867;-85
2022/11/23 00:46:57;;;;;;;3.53;1.60;;;10.00;1.00;;;;;;5048939;28;20937;-84
2022/11/23 00:49:42;;;;;;;7.33;1.90;;;10.00;1.00;;;;;;5035707;28;20944;-85
2022/11/23 00:53:00;;;;;;;4.27;1.40;;;10.00;99.90;;;;;;5048221;28;20463;-84
2022/11/23 00:56:15;;;;;;;13.47;2.10;;;10.00;99.90;;;;;;5050205;28;20876;-84
2022/11/23 00:59:32;;;;;;;;;;;;;;;;;;;;;
2022/11/23 01:02:15;;;;;;;6.20;1.90;;;10.00;99.90;;;;;;5047428;28;20442;-85
2022/11/23 01:05:03;;;;;;;4.00;1.97;;;10.00;99.90;;;;;;5053290;28;20468;-85
2022/11/23 01:10:46;;;;;;;5.97;1.80;;;10.00;99.90;;;;;;5035826;28;20516;-85
2022/11/23 01:13:50;;;;;;;12.03;2.43;;;10.00;99.90;;;;;;5054597;28;20463;-84
2022/11/23 01:20:41;;;;;;;6.53;1.77;;;10.00;99.90;;;;;;5034361;28;20777;-86
2022/11/23 01:22:51;;;;;;;8.00;1.47;;;10.00;99.90;;;;;;5053992;28;20468;-85
2022/11/23 01:25:16;;;;;;;4.00;2.40;;;10.00;99.90;;;;;;5056037;28;20456;-85
2022/11/23 01:27:56;;;;;;;7.07;1.80;;;10.00;99.90;;;;;;5047045;28;20466;-85
2022/11/23 01:33:59;;;;;;;6.90;2.67;;;10.00;99.90;;;;;;5048842;28;20525;-85
2022/11/23 01:39:42;;;;;;;6.40;2.07;;;10.00;42.90;;;;;;5048051;28;20427;-87
2022/11/23 01:43:09;;;;;;;6.70;1.90;;;10.00;1.60;;;;;;5058721;28;20493;-85
2022/11/23 01:45:59;;;;;;;6.00;1.77;;;10.00;2.10;;;;;;4980508;28;20561;-85
2022/11/23 01:49:14;;;;;;;10.23;2.23;;;10.00;1.00;;;;;;4996095;28;20441;-85
2022/11/23 01:52:04;;;;;;;12.07;2.10;;;10.00;26.70;;;;;;5071716;28;20419;-85
2022/11/23 01:57:53;;;;;;;7.50;2.27;;;10.00;1.00;;;;;;5004169;28;20781;-86
2022/11/23 02:00:41;;;;;;;9.43;2.43;;;10.10;1.00;;;;;;5040476;28;20431;-85
2022/11/23 02:03:14;;;;;;;11.63;2.53;;;10.10;1.00;;;;;;5043945;28;20540;-85
2022/11/23 02:05:58;;;;;;;;;;;;;;;;;;;;;
2022/11/23 02:08:46;;;;;;;8.80;2.50;;;10.10;1.00;;;;;;5059886;28;20495;-86
2022/11/23 02:11:32;;;;;;;5.80;3.27;;;10.10;1.00;;;;;;5056424;28;20439;-84
2022/11/23 02:14:11;;;;;;;7.03;2.00;;;10.10;1.00;;;;;;5057847;28;20537;-85
2022/11/23 02:17:07;;;;;;;;;;;;;;;;;;;;;
2022/11/23 02:19:51;;;;;;;;;;;;;;;;;;;;;
2022/11/23 02:22:42;;;;;;;7.13;2.10;;;10.10;1.00;;;;;;5062859;28;20489;-85
2022/11/23 02:25:46;;;;;;;6.90;2.30;;;10.10;1.00;;;;;;5051982;28;20459;-86
2022/11/23 02:28:18;;;;;;;6.77;2.17;;;10.10;1.00;;;;;;5006136;28;20504;-85
2022/11/23 02:30:53;;;;;;;5.53;1.87;;;10.10;1.00;;;;;;5062390;28;20477;-85
2022/11/23 02:33:31;;;;;;;16.30;2.43;;;10.10;1.00;;;;;;5053266;28;20440;-85
2022/11/23 02:36:22;;;;;;;12.30;2.70;;;10.10;1.00;;;;;;5058552;28;20459;-85
2022/11/23 02:38:53;;;;;;;4.67;2.10;;;10.20;99.90;;;;;;5064587;28;20488;-86
2022/11/23 02:41:28;;;;;;;;;;;;;;;;;;;;;
2022/11/23 02:44:59;;;;;;;10.17;2.63;;;10.20;99.90;;;;;;5065684;28;20443;-83
2022/11/23 02:47:48;;;;;;;8.07;2.33;;;10.20;99.90;;;;;;5058203;28;20420;-84
2022/11/23 02:54:14;;;;;;;11.60;2.30;;;10.20;1.00;;;;;;5043214;28;20438;-84
2022/11/23 02:56:46;;;;;;;10.10;2.90;;;10.10;1.00;;;;;;5053999;28;20482;-86
2022/11/23 02:59:37;;;;;;;8.13;2.10;;;10.10;1.00;;;;;;5070352;28;20444;-84
2022/11/23 03:02:27;;;;;;;9.03;1.97;;;10.10;1.00;;;;;;5043407;28;20913;-84
2022/11/23 03:05:16;;;;;;;11.13;3.73;;;10.20;1.00;;;;;;5056530;28;20470;-84
2022/11/23 03:07:44;;;;;;;8.50;2.57;;;10.10;1.00;;;;;;5040986;28;20510;-85
2022/11/23 03:10:13;;;;;;;9.90;2.80;;;10.10;1.00;;;;;;5032626;28;20442;-85
2022/11/23 03:12:43;;;;;;;11.47;2.40;;;10.20;1.00;;;;;;5069901;28;20470;-84
2022/11/23 03:15:09;;;;;;;9.20;2.17;;;10.20;1.00;;;;;;5052773;28;20539;-85
2022/11/23 03:17:35;;;;;;;7.83;2.23;;;10.20;99.90;;;;;;5040782;28;20440;-86
2022/11/23 03:20:06;;;;;;;11.40;2.80;;;10.20;99.90;;;;;;5049700;28;20983;-84
2022/11/23 03:22:33;;;;;;;15.60;3.30;;;10.20;99.90;;;;;;5064809;28;20238;-84
2022/11/23 03:25:00;;;;;;;8.93;2.47;;;10.20;99.90;;;;;;5035071;28;20524;-85
2022/11/23 03:27:36;;;;;;;;;;;;;;;;;;;;;
2022/11/23 03:30:07;;;;;;;6.37;2.00;;;10.20;56.50;;;;;;5056741;28;20431;-85
2022/11/23 03:32:33;;;;;;;9.73;2.27;;;10.10;89.50;;;;;;5038213;28;20443;-84
2022/11/23 03:35:11;;;;;;;6.20;2.60;;;10.10;95.20;;;;;;5034588;28;20474;-84
2022/11/23 03:37:44;;;;;;;11.20;2.17;;;10.20;8.30;;;;;;5039084;28;20509;-85
2022/11/23 03:40:14;;;;;;;12.93;2.50;;;10.10;1.00;;;;;;5051974;28;20447;-85
2022/11/23 03:42:43;;;;;;;5.37;2.60;;;10.10;1.00;;;;;;5037682;28;20456;-83
2022/11/23 03:45:08;;;;;;;13.77;3.00;;;10.10;1.00;;;;;;5020603;28;20441;-84
2022/11/23 03:47:45;;;;;;;9.00;2.27;;;10.10;1.00;;;;;;5039348;28;20427;-84
2022/11/23 03:50:28;;;;;;;11.37;3.70;;;10.10;1.00;;;;;;5038711;28;20439;-84
2022/11/23 03:53:05;;;;;;;6.03;2.10;;;10.10;99.90;;;;;;5054072;28;20448;-85
2022/11/23 03:55:57;;;;;;;9.97;2.10;;;10.10;99.90;;;;;;5042331;28;20486;-85
2022/11/23 04:01:29;;;;;;;6.13;1.80;;;10.10;99.90;;;;;;5041172;28;20461;-85
2022/11/23 04:03:57;;;;;;;9.40;2.30;;;10.10;99.90;;;;;;5062118;28;20538;-84
2022/11/23 04:06:25;;;;;;;11.30;2.30;;;10.10;99.90;;;;;;5049598;28;20482;-86
2022/11/23 04:09:11;;;;;;;10.80;2.93;;;10.10;99.90;;;;;;5051044;28;20438;-85
2022/11/23 04:11:39;;;;;;;6.07;1.53;;;10.10;99.90;;;;;;5055821;28;20488;-85
2022/11/23 04:14:14;;;;;;;7.83;2.10;;;10.10;99.90;;;;;;5051651;28;20497;-84
2022/11/23 04:16:39;;;;;;;8.73;2.10;;;10.10;99.90;;;;;;5044728;28;20496;-85
2022/11/23 04:19:08;;;;;;;8.13;2.27;;;10.10;99.90;;;;;;5041407;28;20432;-85
2022/11/23 04:21:35;;;;;;;4.93;1.77;;;10.10;99.90;;;;;;5031466;28;20205;-84
2022/11/23 04:24:10;;;;;;;6.47;1.97;;;10.10;99.90;;;;;;5052724;28;20470;-83
2022/11/23 04:26:41;;;;;;;7.37;2.13;;;10.10;99.90;;;;;;5034862;28;21040;-84
2022/11/23 04:29:09;;;;;;;11.87;2.67;;;10.10;99.90;;;;;;5064171;28;20447;-84
2022/11/23 04:31:39;;;;;;;8.80;2.00;;;10.10;99.90;;;;;;5061743;28;20446;-85
2022/11/23 04:34:08;;;;;;;5.67;1.73;;;10.10;99.90;;;;;;5040725;28;20451;-85
2022/11/23 04:36:36;;;;;;;10.83;2.13;;;10.10;99.90;;;;;;5060228;28;20440;-85
2022/11/23 04:39:05;;;;;;;7.10;2.10;;;10.10;99.90;;;;;;5057297;28;20841;-85
2022/11/23 04:41:40;;;;;;;10.00;1.73;;;10.10;99.90;;;;;;5059735;28;20518;-85
2022/11/23 04:44:20;;;;;;;6.70;1.70;;;10.10;99.90;;;;;;5034707;28;20471;-85
2022/11/23 04:46:53;;;;;;;7.90;2.13;;;10.10;99.90;;;;;;5060694;28;20434;-85
2022/11/23 04:49:18;;;;;;;11.33;3.40;;;10.10;99.90;;;;;;5057636;28;20502;-86
2022/11/23 04:51:46;;;;;;;12.00;2.27;;;10.10;99.90;;;;;;5063800;28;20927;-86
2022/11/23 04:54:12;;;;;;;13.97;2.60;;;10.10;99.90;;;;;;5060940;28;20550;-85
2022/11/23 04:56:45;;;;;;;9.00;1.70;;;10.10;99.90;;;;;;5065254;28;20436;-85
2022/11/23 04:59:10;;;;;;;8.40;2.10;;;10.10;99.90;;;;;;5029500;28;20208;-84
2022/11/23 05:02:11;;;;;;;13.40;2.17;;;10.00;1.00;;;;;;5055749;28;20984;-85
2022/11/23 05:04:39;;;;;;;5.77;2.30;;;10.00;1.00;;;;;;5055352;28;20274;-86
2022/11/23 05:07:17;;;;;;;9.73;2.10;;;10.00;1.00;;;;;;5050658;28;20443;-85
2022/11/23 05:09:55;;;;;;;8.77;2.20;;;10.00;1.00;;;;;;5039158;28;20506;-86
2022/11/23 05:12:20;;;;;;;9.50;2.13;;;10.10;1.00;;;;;;5043258;28;20432;-85
2022/11/23 05:14:46;;;;;;;9.60;2.03;;;10.10;1.00;;;;;;5052017;28;20459;-84
2022/11/23 05:17:17;;;;;;;11.77;2.70;;;10.00;1.00;;;;;;5066028;28;20198;-85
2022/11/23 05:19:45;;;;;;;15.23;3.00;;;10.00;1.00;;;;;;5064635;28;20204;-84
2022/11/23 05:22:13;;;;;;;7.97;2.23;;;10.00;1.00;;;;;;5062093;28;20545;-85
2022/11/23 05:24:43;;;;;;;14.67;2.07;;;10.00;1.00;;;;;;5044725;28;20466;-85
2022/11/23 05:27:11;;;;;;;13.57;3.83;;;10.00;1.00;;;;;;5038096;28;20945;-85
2022/11/23 05:29:37;;;;;;;8.70;2.17;;;10.00;1.00;;;;;;5069677;28;20461;-85
2022/11/23 05:32:06;;;;;;;14.43;3.20;;;10.00;1.00;;;;;;5036235;28;20448;-86
2022/11/23 05:34:38;;;;;;;10.30;2.20;;;10.00;1.00;;;;;;5059350;28;20510;-85
2022/11/23 05:37:13;;;;;;;12.53;2.50;;;10.00;1.00;;;;;;5055507;28;20436;-86
2022/11/23 05:39:50;;;;;;;14.77;3.00;;;10.00;1.00;;;;;;5060961;28;20975;-84
2022/11/23 05:42:18;;;;;;;11.80;2.87;;;10.00;1.00;;;;;;5040894;28;20995;-86
2022/11/23 05:44:46;;;;;;;15.23;3.00;;;10.00;1.00;;;;;;5070840;28;20962;-85
2022/11/23 05:47:13;;;;;;;9.37;2.47;;;10.00;1.00;;;;;;5030926;28;21061;-85
2022/11/23 05:49:41;;;;;;;17.93;3.10;;;10.00;1.00;;;;;;5054078;28;20520;-85
2022/11/23 05:52:07;;;;;;;11.57;3.40;;;10.00;1.00;;;;;;5052755;28;20527;-85
2022/11/23 05:54:40;;;;;;;43.43;5.97;;;9.90;1.00;;;;;;5059062;28;20484;-86
2022/11/23 05:57:05;;;;;;;9.50;3.00;;;10.00;1.00;;;;;;5048401;28;20192;-85
2022/11/23 05:59:35;;;;;;;12.23;2.60;;;9.90;1.00;;;;;;5057369;28;20904;-85
2022/11/23 06:02:01;;;;;;;12.10;2.57;;;9.90;1.00;;;;;;5035522;28;20295;-85
2022/11/23 06:04:26;;;;;;;20.77;3.50;;;9.90;25.50;;;;;;5055216;28;20795;-86
2022/11/23 06:06:57;;;;;;;7.70;2.67;;;9.90;62.40;;;;;;5061329;28;20181;-84
2022/11/23 06:09:25;;;;;;;17.53;2.97;;;9.90;99.90;;;;;;5042385;28;20187;-86
2022/11/23 06:11:54;;;;;;;14.43;3.00;;;9.90;99.90;;;;;;5054558;28;20983;-86
2022/11/23 06:14:19;;;;;;;12.60;2.97;;;9.80;99.90;;;;;;5044022;28;20444;-87
2022/11/23 06:16:47;;;;;;;10.83;2.80;;;9.80;99.90;;;;;;5061091;28;20573;-85
2022/11/23 06:19:21;;;;;;;15.97;3.60;;;9.80;99.90;;;;;;5047786;28;20188;-84
2022/11/23 06:21:46;;;;;;;13.43;3.50;;;9.80;99.90;;;;;;5065469;28;20508;-84
2022/11/23 06:24:19;;;;;;;9.80;3.37;;;9.80;99.90;;;;;;5062412;28;20439;-84
2022/11/23 06:26:47;;;;;;;13.40;3.50;;;9.80;99.90;;;;;;5044377;28;20201;-84
2022/11/23 06:29:15;;;;;;;10.67;2.10;;;9.80;99.90;;;;;;5052227;28;20471;-84
2022/11/23 06:31:46;;;;;;;13.20;3.90;;;9.80;99.90;;;;;;5057380;28;20443;-84
2022/11/23 06:34:15;;;;;;;22.20;3.30;;;9.80;99.90;;;;;;5059817;28;20453;-84
2022/11/23 06:36:42;;;;;;;13.50;3.60;;;9.70;99.90;;;;;;5054528;28;20439;-85
2022/11/23 06:39:20;;;;;;;;;;;;;;;;;;;;;
2022/11/23 06:41:53;;;;;;;13.70;5.67;;;9.80;99.90;;;;;;5053987;28;20795;-85
2022/11/23 06:44:29;;;;;;;16.47;4.60;;;9.80;98.90;;;;;;5060149;28;20467;-85
2022/11/23 06:46:54;;;;;;;14.07;3.40;;;9.80;1.00;;;;;;5065664;28;20844;-85
2022/11/23 06:49:25;;;;;;;13.87;4.20;;;9.80;1.00;;;;;;5066597;28;20428;-85
2022/11/23 06:51:53;;;;;;;9.93;3.50;;;9.80;1.00;;;;;;5037721;28;20184;-84
2022/11/23 06:54:19;;;;;;;16.63;2.63;;;9.80;1.00;;;;;;5036780;28;20419;-84
2022/11/23 06:56:44;;;;;;;14.83;3.20;;;9.70;1.00;;;;;;5063181;28;20484;-84
2022/11/23 06:59:15;;;;;;;8.40;3.10;;;9.70;99.90;;;;;;5059609;28;20184;-85
2022/11/23 07:01:41;;;;;;;8.57;2.80;;;9.60;99.90;;;;;;5067382;28;20177;-84
2022/11/23 07:04:11;;;;;;;8.50;2.90;;;9.60;99.90;;;;;;5042218;28;20428;-84
2022/11/23 07:06:40;;;;;;;15.40;3.37;;;9.60;99.90;;;;;;5053905;28;20287;-83
2022/11/23 07:09:08;;;;;;;3.87;1.80;;;9.60;99.90;;;;;;5051899;28;20436;-84
2022/11/23 07:11:45;;;;;;;11.33;2.13;;;9.60;34.80;;;;;;5058732;28;20427;-82
2022/11/23 07:14:18;;;;;;;6.20;1.67;;;9.60;1.00;;;;;;5049690;28;20431;-83
2022/11/23 07:16:56;;;;;;;9.20;2.30;;;9.50;1.00;;;;;;5048035;28;20431;-83
2022/11/23 07:20:00;;;;;;;;;;;;;;;;;;;;;
2022/11/23 07:22:41;;;;;;;10.13;2.70;;;9.40;1.00;;;;;;5048790;28;20472;-82
2022/11/23 07:25:31;;;;;;;7.45;2.88;;;9.40;99.90;;;;;;5046223;28;20507;-83
2022/11/23 07:28:07;;;;;;;10.32;3.00;;;9.30;99.90;;;;;;5051661;28;20232;-83
2022/11/23 07:31:07;;;;;;;5.00;1.77;;;9.30;99.90;;;;;;5044304;28;20181;-83
2022/11/23 07:34:10;;;;;;;6.90;2.30;;;9.30;99.90;;;;;;5056680;28;20447;-83
2022/11/23 07:36:36;;;;;;;10.33;3.30;;;9.50;99.90;;;;;;5054012;28;20477;-82
2022/11/23 07:39:04;;;;;;;12.40;3.80;;;9.50;99.90;;;;;;5053344;28;20448;-82
2022/11/23 07:41:42;;;;;;;;;;;;;;;;;;;;;
2022/11/23 07:44:40;;;;;;;12.13;4.07;;;9.60;1.00;;;;;;5057164;28;20436;-83
2022/11/23 07:47:12;;;;;;;5.07;3.67;;;9.70;1.00;;;;;;5042187;28;20444;-83
2022/11/23 07:49:48;;;;;;;10.27;4.20;;;9.90;1.00;;;;;;5047503;28;20443;-83
2022/11/23 07:52:34;;;;;;;;;;;;;;;;;;;;;
2022/11/23 07:55:14;;;;;;;8.03;3.47;;;10.20;1.00;;;;;;5052364;28;20479;-83
2022/11/23 07:57:51;;;;;;;12.33;3.50;;;10.20;99.90;;;;;;5036725;28;20443;-82
2022/11/23 08:00:20;;;;;;;9.60;2.80;;;10.30;99.90;;;;;;5035518;28;21146;-80
2022/11/23 08:03:01;;;;;;;5.40;2.80;;;10.30;99.90;;;;;;5033678;28;20463;-84
2022/11/23 08:05:27;;;;;;;8.00;3.90;;;10.30;99.90;;;;;;5036840;28;20467;-83
2022/11/23 08:08:02;;;;;;;7.90;4.20;;;10.40;99.90;;;;;;5055837;28;21313;-83
2022/11/23 08:10:38;;;;;;;11.60;3.90;;;10.60;99.90;;;;;;5036303;28;20556;-84
2022/11/23 08:13:23;;;;;;;11.27;3.67;;;11.90;99.90;;;;;;5036326;28;20444;-84
2022/11/23 08:15:58;;;;;;;6.80;2.20;;;14.10;1.00;;;;;;5035116;28;20464;-84
2022/11/23 08:18:36;;;;;;;11.30;2.80;;;15.80;1.00;;;;;;5033951;28;20443;-84
2022/11/23 08:21:14;;;;;;;13.57;2.53;;;17.30;99.90;;;;;;5039105;28;20539;-85
2022/11/23 08:23:47;;;;;;;6.10;2.10;;;18.60;99.90;;;;;;5031910;28;20518;-85
2022/11/23 08:26:54;;;;;;;9.70;2.87;;;19.70;99.90;;;;;;5047663;28;20466;-84
2022/11/23 08:29:34;;;;;;;6.60;2.10;;;20.60;99.90;;;;;;5011935;28;20839;-85
2022/11/23 08:32:53;;;;;;;10.87;3.43;;;21.60;99.90;;;;;;5045822;28;20436;-85
2022/11/23 08:35:08;;;;;;;8.50;2.83;;;22.30;99.90;;;;;;5047827;28;20512;-85
2022/11/23 08:38:00;;;;;;;10.20;3.43;;;23.00;99.90;;;;;;5052049;28;20714;-85
2022/11/23 08:40:25;;;;;;;9.70;2.87;;;23.50;99.90;;;;;;5052191;28;20457;-85
2022/11/23 08:43:10;;;;;;;;;;;;;;;;;;;;;
2022/11/23 08:46:02;;;;;;;10.30;2.90;;;24.40;99.90;;;;;;5064525;28;20561;-85
2022/11/23 08:49:09;;;;;;;8.03;2.67;;;24.90;99.90;;;;;;5063539;28;20431;-86
2022/11/23 08:51:45;;;;;;;13.80;2.77;;;25.10;99.90;;;;;;5048720;28;20440;-85
2022/11/23 08:54:18;;;;;;;9.50;2.37;;;25.10;99.90;;;;;;5057015;28;21044;-86
2022/11/23 08:57:03;;;;;;;8.50;2.37;;;25.00;99.90;;;;;;5043909;28;20424;-85
2022/11/23 08:59:43;;;;;;;7.97;2.33;;;24.50;99.90;;;;;;5035790;28;20429;-84
2022/11/23 09:05:47;;;;;;;15.00;2.37;;;22.50;99.90;;;;;;5063899;28;20530;-85
2022/11/23 09:08:17;;;;;;;8.00;2.20;;;21.10;99.90;;;;;;5018349;28;20447;-86
2022/11/23 09:10:50;;;;;;;7.93;2.47;;;20.20;99.90;;;;;;5036617;28;20436;-84
2022/11/23 09:13:16;;;;;;;11.80;2.00;;;19.20;99.90;;;;;;5059869;28;20849;-84
2022/11/23 09:16:19;;;;;;;10.07;3.20;;;18.40;99.90;;;;;;5042106;28;20465;-85
2022/11/23 09:18:49;;;;;;;11.23;2.93;;;17.80;99.90;;;;;;5032965;28;20207;-83
2022/11/23 09:21:29;;;;;;;9.00;2.23;;;17.00;99.90;;;;;;5051355;28;20445;-83
2022/11/23 09:24:15;;;;;;;;;;;;;;;;;;;;;
2022/11/23 09:26:45;;;;;;;6.50;2.00;;;16.00;99.90;;;;;;5053790;28;20454;-84
2022/11/23 09:29:13;;;;;;;13.57;2.80;;;15.60;99.90;;;;;;5052837;28;20523;-84
2022/11/23 09:31:44;;;;;;;8.37;3.03;;;15.30;99.90;;;;;;5058520;28;20950;-82
2022/11/23 09:34:12;;;;;;;12.37;2.47;;;15.10;99.90;;;;;;5050158;28;20447;-83
2022/11/23 09:36:38;;;;;;;7.13;2.07;;;14.90;99.90;;;;;;5056574;28;20434;-84
2022/11/23 09:39:04;;;;;;;7.37;2.47;;;14.70;99.90;;;;;;5043054;28;20577;-84
2022/11/23 09:41:41;;;;;;;8.87;2.20;;;14.60;99.90;;;;;;5045329;28;20193;-84
2022/11/23 09:44:17;;;;;;;8.33;2.77;;;14.50;99.90;;;;;;5056557;28;20253;-84
2022/11/23 09:47:00;;;;;;;11.13;3.03;;;14.50;99.90;;;;;;5059391;28;20432;-83
2022/11/23 09:49:38;;;;;;;8.13;2.17;;;14.70;99.90;;;;;;5061015;28;20426;-83
2022/11/23 09:52:23;;;;;;;9.93;2.67;;;14.90;99.90;;;;;;5060935;28;20791;-84
2022/11/23 09:54:55;;;;;;;9.87;2.67;;;14.90;99.90;;;;;;5059530;28;20468;-84
2022/11/23 09:57:28;;;;;;;10.53;2.40;;;14.80;99.90;;;;;;5047121;28;20439;-84
2022/11/23 10:00:21;;;;;;;10.73;2.43;;;14.60;99.90;;;;;;5064866;28;20870;-85
2022/11/23 10:02:54;;;;;;;12.43;2.90;;;14.40;99.90;;;;;;5065776;28;20463;-84
2022/11/23 10:05:24;;;;;;;6.23;2.60;;;14.20;99.90;;;;;;5059880;28;20536;-82
2022/11/23 10:08:25;;;;;;;9.67;2.10;;;14.10;99.90;;;;;;5062385;28;20430;-82
2022/11/23 10:11:09;;;;;;;11.30;2.57;;;13.90;99.90;;;;;;5051487;28;20451;-82
2022/11/23 10:14:22;;;;;;;6.30;2.47;;;13.80;99.90;;;;;;5066937;28;20436;-82
2022/11/23 10:17:20;;;;;;;11.43;2.63;;;13.70;99.90;;;;;;5058139;28;20425;-82
2022/11/23 10:20:32;;;;;;;6.40;1.73;;;13.60;99.90;;;;;;5055199;28;20455;-84
2022/11/23 10:23:03;;;;;;;7.40;2.93;;;13.60;99.90;;;;;;5025198;28;20480;-82
2022/11/23 10:25:51;;;;;;;5.20;1.67;;;13.50;99.90;;;;;;5065732;28;20554;-84
2022/11/23 10:28:51;;;;;;;9.40;2.17;;;13.50;99.90;;;;;;5030351;28;20449;-82
2022/11/23 10:31:25;;;;;;;16.60;5.90;;;13.40;99.90;;;;;;5039651;28;20821;-83
2022/11/23 10:34:08;;;;;;;8.30;3.03;;;13.40;99.90;;;;;;5028767;28;20448;-82
2022/11/23 10:36:37;;;;;;;7.93;2.83;;;13.30;99.90;;;;;;5027529;28;21042;-81
2022/11/23 10:39:20;;;;;;;9.57;2.80;;;13.30;99.90;;;;;;5045122;28;21060;-80
2022/11/23 10:41:46;;;;;;;7.07;2.47;;;13.20;99.90;;;;;;5066492;28;20439;-82
2022/11/23 10:44:28;;;;;;;8.93;2.23;;;13.20;99.90;;;;;;5051385;28;21221;-81
2022/11/23 10:46:54;;;;;;;7.10;1.30;;;13.20;99.90;;;;;;5028875;28;20446;-80
2022/11/23 10:49:22;;;;;;;5.40;1.73;;;13.20;99.90;;;;;;5052772;28;20998;-83
2022/11/23 10:51:56;;;;;;;8.00;2.10;;;13.30;99.90;;;;;;5053178;28;20558;-81
2022/11/23 10:54:50;;;;;;;6.63;1.80;;;13.30;99.90;;;;;;5053568;28;20452;-81
2022/11/23 10:57:41;;;;;;;2.90;1.50;;;13.40;99.90;;;;;;5044185;28;20449;-80
2022/11/23 11:00:14;;;;;;;4.93;2.10;;;13.50;99.90;;;;;;5030022;28;20446;-82
2022/11/23 11:02:41;;;;;;;4.50;1.93;;;13.70;99.90;;;;;;5052628;28;20474;-82
2022/11/23 11:05:27;;;;;;;4.00;1.33;;;14.30;99.90;;;;;;5060971;28;20849;-80
2022/11/23 11:07:55;;;;;;;7.63;2.23;;;15.70;99.90;;;;;;5062647;28;20505;-81
2022/11/23 11:10:40;;;;;;;6.53;3.53;;;16.90;99.90;;;;;;5056623;28;20433;-82
2022/11/23 11:13:47;;;;;;;3.30;1.30;;;17.20;99.90;;;;;;5054202;28;20961;-81
2022/11/23 11:16:25;;;;;;;7.43;1.93;;;17.30;99.90;;;;;;5038297;28;20460;-81
2022/11/23 11:18:51;;;;;;;6.03;1.43;;;17.50;99.90;;;;;;5052270;28;20488;-82
2022/11/23 11:21:23;;;;;;;4.23;1.33;;;17.40;99.90;;;;;;5050276;28;20442;-80
2022/11/23 11:23:57;;;;;;;13.53;2.07;;;17.30;99.90;;;;;;5052798;28;20481;-81
2022/11/23 11:26:25;;;;;;;9.63;2.37;;;17.00;99.90;;;;;;5058488;28;20449;-82
2022/11/23 11:28:53;;;;;;;7.93;2.93;;;16.80;99.90;;;;;;5046944;28;20437;-79
2022/11/23 11:31:50;;;;;;;10.13;3.67;;;17.40;99.90;;;;;;5049497;28;20445;-82
2022/11/23 11:34:21;;;;;;;5.07;2.10;;;19.00;99.90;;;;;;5054379;28;20438;-81
2022/11/23 11:37:06;;;;;;;8.90;4.10;;;20.40;99.90;;;;;;5051793;28;20439;-81
2022/11/23 11:39:38;;;;;;;6.43;2.50;;;20.50;99.90;;;;;;5040280;28;20435;-82
2022/11/23 11:42:10;;;;;;;4.73;3.13;;;20.00;99.90;;;;;;5056723;28;20859;-82
2022/11/23 11:44:39;;;;;;;6.40;1.40;;;19.20;99.90;;;;;;5053462;28;20456;-83
2022/11/23 11:47:30;;;;;;;5.13;1.20;;;18.50;99.90;;;;;;5055606;28;20521;-82
2022/11/23 11:49:58;;;;;;;6.40;1.50;;;17.90;99.90;;;;;;5046306;28;20437;-83
2022/11/23 11:52:28;;;;;;;6.17;5.57;;;18.00;99.90;;;;;;5051307;28;20478;-83
2022/11/23 11:55:15;;;;;;;4.63;1.27;;;18.00;99.90;;;;;;5062376;28;20584;-82
2022/11/23 11:57:49;;;;;;;5.80;1.37;;;17.60;99.90;;;;;;5054183;28;20792;-83
2022/11/23 12:00:18;;;;;;;4.33;1.10;;;17.30;99.90;;;;;;5072401;28;20952;-81
2022/11/23 12:03:05;;;;;;;5.30;1.50;;;17.10;99.90;;;;;;5037849;28;21084;-83
2022/11/23 12:05:45;;;;;;;4.83;1.50;;;16.90;99.90;;;;;;5039335;28;20480;-79
2022/11/23 12:08:34;;;;;;;5.13;1.93;;;16.70;99.90;;;;;;5050637;28;20461;-79
2022/11/23 12:11:01;;;;;;;2.83;1.30;;;17.10;99.90;;;;;;5050750;28;20440;-81
2022/11/23 12:13:32;;;;;;;3.93;1.63;;;17.80;99.90;;;;;;5054911;28;20437;-83
2022/11/23 12:16:20;;;;;;;4.00;1.40;;;18.90;99.90;;;;;;5040143;28;20459;-82
2022/11/23 12:19:04;;;;;;;4.67;1.63;;;20.00;99.90;;;;;;5032148;28;20529;-84
2022/11/23 12:21:47;;;;;;;3.23;1.37;;;20.90;99.90;;;;;;5056764;28;20415;-82
2022/11/23 12:24:43;;;;;;;3.20;1.47;;;21.70;99.90;;;;;;5055706;28;20523;-81
2022/11/23 12:27:17;;;;;;;5.10;1.50;;;22.20;99.90;;;;;;5041440;28;20447;-80
2022/11/23 12:29:52;;;;;;;5.40;1.90;;;22.60;99.90;;;;;;5037167;28;20439;-81
2022/11/23 12:32:47;;;;;;;4.10;2.00;;;22.90;99.90;;;;;;5054055;28;20423;-81
2022/11/23 12:35:35;;;;;;;4.00;2.10;;;23.10;99.90;;;;;;5034236;28;20831;-81
2022/11/23 12:38:37;;;;;;;3.97;1.63;;;23.30;99.90;;;;;;5053323;28;20480;-83
2022/11/23 12:41:41;;;;;;;2.90;1.20;;;23.30;99.90;;;;;;5053302;28;20423;-80
2022/11/23 12:44:37;;;;;;;4.40;1.30;;;23.40;99.90;;;;;;5035468;28;20486;-81
2022/11/23 12:47:32;;;;;;;4.17;1.63;;;23.10;99.90;;;;;;5054368;28;20477;-82
2022/11/23 12:50:29;;;;;;;3.53;1.33;;;22.90;99.90;;;;;;5035675;28;20463;-82
2022/11/23 12:53:04;;;;;;;7.53;1.50;;;22.80;99.90;;;;;;5017721;28;20414;-82
2022/11/23 12:55:57;;;;;;;4.25;1.30;;;22.50;99.90;;;;;;5040859;28;20774;-83
2022/11/23 12:58:30;;;;;;;5.30;2.57;;;22.50;99.90;;;;;;5034223;28;20720;-82
2022/11/23 13:17:21;;;;;;;5.83;3.30;;;19.40;99.90;;;;;;4972908;28;20501;-81
2022/11/23 13:26:56;;;;;;;4.33;3.03;;;18.70;99.90;;;;;;4945642;28;20482;-81
2022/11/23 13:33:36;;;;;;;7.43;3.37;;;17.30;99.90;;;;;;4887062;29;20462;-83
2022/11/23 13:37:25;;;;;;;;;;;;;;;;;;;;;
2022/11/23 13:44:01;;;;;;;3.97;1.70;;;14.90;99.90;;;;;;4922873;29;20472;-81
2022/11/23 13:46:59;;;;;;;;;;;;;;;;;;;;;
2022/11/23 13:49:49;;;;;;;6.80;2.37;;;14.30;99.90;;;;;;4977532;28;20456;-82
2022/11/23 14:00:24;;;;;;;8.87;1.90;;;13.90;99.90;;;;;;4916009;29;20451;-81
2022/11/23 14:03:54;;;;;;;;;;;;;;;;;;;;;
2022/11/23 14:06:56;;;;;;;;;;;;;;;;;;;;;
2022/11/23 14:09:46;;;;;;;4.40;2.50;;;13.50;99.90;;;;;;4972248;28;20435;-81
2022/11/23 14:23:20;;;;;;;19.73;11.83;;;13.00;99.90;;;;;;4916483;29;20489;-82
2022/11/23 14:36:34;;;;;;;5.13;1.97;;;12.90;99.90;;;;;;5166333;23;21124;-81
2022/11/23 14:39:37;;;;;;;5.73;2.03;;;12.90;99.90;;;;;;4964231;28;20864;-79
2022/11/23 14:46:12;;;;;;;5.50;2.17;;;12.60;99.90;;;;;;4883838;29;20463;-82
2022/11/23 14:48:49;;;;;;;9.53;5.47;;;12.50;99.90;;;;;;4915470;28;20452;-82
2022/11/23 14:51:26;;;;;;;16.80;6.23;;;12.20;1.00;;;;;;4958261;28;20480;-81
2022/11/23 14:54:21;;;;;;;25.13;13.20;;;11.90;99.90;;;;;;4973792;28;20486;-83
2022/11/23 14:56:50;;;;;;;13.10;4.70;;;11.60;99.90;;;;;;4947612;29;20440;-82
2022/11/23 15:00:05;;;;;;;10.93;4.80;;;11.30;99.90;;;;;;4947991;29;20452;-82
2022/11/23 15:06:30;;;;;;;;;;;;;;;;;;;;;
2022/11/23 15:27:10;;;;;;;9.00;4.33;;;10.40;99.90;;;;;;4963165;23;20657;-83
2022/11/23 15:30:00;;;;;;;21.67;5.40;;;10.30;99.90;;;;;;4982846;28;20800;-84
2022/11/23 15:33:15;;;;;;;15.87;5.53;;;10.20;99.90;;;;;;4959673;28;20583;-84
2022/11/23 15:35:54;;;;;;;18.97;4.73;;;10.20;1.00;;;;;;4981281;28;20455;-84
2022/11/23 15:38:20;;;;;;;8.07;4.90;;;10.10;1.00;;;;;;4970702;28;20473;-83
2022/11/23 15:41:13;;;;;;;10.83;4.70;;;10.10;1.00;;;;;;4981706;28;20438;-84
2022/11/23 15:44:19;;;;;;;26.20;6.70;;;10.10;1.00;;;;;;4985368;28;20479;-84
2022/11/23 15:46:50;;;;;;;9.40;4.50;;;10.00;1.00;;;;;;4972596;28;20431;-84
2022/11/23 15:49:20;;;;;;;13.83;6.60;;;10.00;1.00;;;;;;4992141;28;20875;-85
2022/11/23 15:51:51;;;;;;;14.17;7.30;;;10.00;1.00;;;;;;4994147;28;20462;-86
2022/11/23 15:54:23;;;;;;;12.53;6.60;;;10.00;1.00;;;;;;4976313;28;20451;-85
2022/11/23 15:56:59;;;;;;;16.80;5.80;;;10.00;1.00;;;;;;4973509;28;20439;-86
2022/11/23 15:59:44;;;;;;;15.63;5.40;;;10.00;1.00;;;;;;4974306;28;20470;-85
2022/11/23 16:02:30;;;;;;;25.43;9.53;;;10.00;1.00;;;;;;4978162;28;20442;-84
2022/11/23 16:05:42;;;;;;;13.73;6.47;;;10.00;1.00;;;;;;4988815;28;20458;-84
2022/11/23 16:08:23;;;;;;;10.73;5.50;;;9.90;1.00;;;;;;4979226;28;20448;-85
2022/11/23 16:10:54;;;;;;;23.43;7.00;;;9.90;1.00;;;;;;4976591;28;20435;-86
2022/11/23 16:14:11;;;;;;;15.07;7.07;;;9.80;1.00;;;;;;4980645;28;20471;-83
2022/11/23 16:16:39;;;;;;;9.53;5.20;;;9.80;1.00;;;;;;4951932;28;20451;-85